Terminal Aerodrome Forecast
Issued by NWS Charleston, WV

Current Version | Previous Version | Text Only | Print | Product List | Glossary Off
Versions: 1 2 3 4 5 6 7 8 9 10 11 12 13 14 15 16 17 18 19 20 21 22 23 24 25 26 27 28

251
FTUS41 KRLX 211230 AAA
TAFEKN
TAF AMD
KEKN 211230Z 2113/2212 VRB03KT 6SM -SHRA BR BKN003 OVC025
      TEMPO 2113/2115 SCT002 OVC015
     FM211500 25004KT 6SM -SHRA BR SCT008 OVC025
     FM211900 31004KT 4SM -SHRA BR OVC015
     FM220200 VRB03KT 3SM -RADZ OVC004=

USA.gov is the U.S. government's official web portal to all federal, state and local government web resources and services.